Time;durP1;ratioP1;P1;durP2;ratioP2;P2;SDS_P1;SDS_P2;PMS_P1;PMS_P2;Temp;Humidity;BMP_temperature;BMP_pressure;BME280_temperature;BME280_humidity;BME280_pressure;Samples;Min_cycle;Max_cycle;Signal;HPM_P1;HPM_P2
2022/09/24 00:00:18;;;;;;;7.10;4.47;;;;;;;11.22;92.53;101347.44;5114964;28;20088;-73
2022/09/24 00:02:44;;;;;;;10.57;4.32;;;;;;;11.34;91.12;101343.88;5096218;28;20031;-70
2022/09/24 00:05:09;;;;;;;8.15;5.05;;;;;;;11.42;90.54;101352.22;5096309;28;20027;-70
2022/09/24 00:07:35;;;;;;;7.15;6.03;;;;;;;11.40;90.38;101349.66;5115016;28;20035;-72
2022/09/24 00:10:01;;;;;;;7.03;5.03;;;;;;;11.42;89.89;101347.72;5096151;28;20032;-71
2022/09/24 00:12:27;;;;;;;6.40;4.75;;;;;;;11.43;89.23;101344.06;5114291;28;20361;-71
2022/09/24 00:14:53;;;;;;;8.18;4.25;;;;;;;11.40;89.51;101346.94;5114711;28;20110;-71
2022/09/24 00:17:18;;;;;;;7.70;4.20;;;;;;;11.38;89.87;101345.34;5095911;28;20515;-71
2022/09/24 00:19:44;;;;;;;9.82;4.97;;;;;;;11.40;89.73;101351.47;5095819;28;20020;-71
2022/09/24 00:22:10;;;;;;;8.15;4.63;;;;;;;11.37;89.48;101344.50;5114279;28;20024;-70
2022/09/24 00:27:19;;;;;;;11.68;4.25;;;;;;;11.38;89.32;101339.97;5114216;28;20088;-71
2022/09/24 00:29:45;;;;;;;7.60;4.50;;;;;;;11.34;88.83;101338.47;5114315;28;20027;-71
2022/09/24 00:32:12;;;;;;;6.60;4.57;;;;;;;11.37;89.30;101343.63;5096066;28;20035;-72
2022/09/24 00:34:37;;;;;;;5.13;4.13;;;;;;;11.41;89.10;101339.72;5113895;28;20034;-71
2022/09/24 00:37:03;;;;;;;6.97;3.80;;;;;;;11.39;89.35;101342.53;5113996;28;20040;-71
2022/09/24 00:39:29;;;;;;;6.72;3.40;;;;;;;11.45;87.92;101339.41;5113945;28;20076;-72
2022/09/24 00:41:54;;;;;;;6.22;3.25;;;;;;;11.49;87.55;101341.88;5113614;28;20071;-72
2022/09/24 00:44:41;;;;;;;4.70;3.40;;;;;;;11.48;87.34;101335.63;5113886;28;20019;-73
2022/09/24 00:47:22;;;;;;;7.20;3.35;;;;;;;11.47;87.20;101339.28;5095256;28;20028;-71
2022/09/24 00:49:49;;;;;;;6.90;3.58;;;;;;;11.45;87.36;101335.84;5096162;28;20086;-71
2022/09/24 00:52:17;;;;;;;9.27;3.75;;;;;;;11.45;87.52;101341.25;5114235;28;20031;-71
2022/09/24 00:54:44;;;;;;;4.10;3.45;;;;;;;11.44;87.66;101340.38;5113880;28;20027;-72
2022/09/24 00:57:11;;;;;;;8.43;3.95;;;;;;;11.46;87.75;101337.56;5113625;28;20043;-72
2022/09/24 00:59:39;;;;;;;6.07;3.35;;;;;;;11.45;87.92;101335.84;5113483;28;20110;-71
2022/09/24 01:02:06;;;;;;;6.20;3.83;;;;;;;11.38;88.24;101334.56;5113846;28;20019;-70
2022/09/24 01:04:32;;;;;;;8.48;3.88;;;;;;;11.28;88.81;101334.41;5113892;28;20050;-71
2022/09/24 01:06:58;;;;;;;4.95;3.35;;;;;;;11.28;88.64;101322.78;5095448;28;20488;-71
2022/09/24 01:09:26;;;;;;;7.28;4.00;;;;;;;11.22;88.81;101334.00;5113469;28;20058;-71
2022/09/24 01:11:51;;;;;;;10.27;4.82;;;;;;;11.21;89.32;101324.19;5113174;28;20377;-72
2022/09/24 01:14:39;;;;;;;7.75;3.65;;;;;;;11.18;89.78;101325.28;5113000;28;20035;-71
2022/09/24 01:17:28;;;;;;;6.65;3.30;;;;;;;11.22;89.66;101328.59;5113080;28;20031;-72
2022/09/24 01:20:17;;;;;;;10.98;3.88;;;;;;;11.17;89.45;101328.09;5113130;28;20509;-72
2022/09/24 01:23:14;;;;;;;6.80;3.45;;;;;;;11.11;89.35;101319.50;5113216;28;20039;-71
2022/09/24 01:26:07;;;;;;;8.32;3.45;;;;;;;11.14;89.09;101326.50;5094708;28;20046;-71
2022/09/24 01:29:01;;;;;;;7.90;3.63;;;;;;;11.21;89.43;101321.50;5094638;28;20019;-73
2022/09/24 01:31:33;;;;;;;6.82;3.38;;;;;;;11.17;89.31;101315.50;5112826;28;20031;-72
2022/09/24 01:34:04;;;;;;;5.03;3.25;;;;;;;11.17;89.80;101314.63;5094766;28;20031;-71
2022/09/24 01:36:33;;;;;;;7.43;3.58;;;;;;;11.18;89.66;101317.22;5093893;28;20100;-72
2022/09/24 01:39:01;;;;;;;11.43;3.45;;;;;;;11.17;89.79;101320.03;5112343;28;20365;-72
2022/09/24 01:41:27;;;;;;;5.47;2.90;;;;;;;11.17;89.75;101320.88;5112939;28;20024;-72
2022/09/24 01:43:53;;;;;;;6.60;3.05;;;;;;;11.18;89.86;101327.97;5113197;28;20035;-71
2022/09/24 01:46:21;;;;;;;6.13;2.65;;;;;;;11.13;89.67;101322.94;5113015;28;20434;-72
2022/09/24 01:48:48;;;;;;;3.88;2.70;;;;;;;11.15;89.86;101328.22;5112736;28;20115;-72
2022/09/24 01:51:27;;;;;;;6.97;2.90;;;;;;;11.21;88.81;101322.38;5112236;28;20087;-71
2022/09/24 01:54:19;;;;;;;8.68;3.40;;;;;;;11.45;87.42;101319.72;5094302;28;20054;-71
2022/09/24 01:56:52;;;;;;;4.78;3.40;;;;;;;11.52;86.39;101320.94;5094400;28;20464;-71
2022/09/24 01:59:28;;;;;;;6.90;3.67;;;;;;;11.59;85.25;101321.34;5093943;28;20082;-71
2022/09/24 02:02:08;;;;;;;4.68;2.83;;;;;;;11.57;84.65;101324.16;5094181;28;20582;-72
2022/09/24 02:04:41;;;;;;;6.47;2.97;;;;;;;11.56;84.77;101322.44;5112559;28;20076;-71
2022/09/24 02:07:14;;;;;;;5.82;3.30;;;;;;;11.55;83.84;101314.47;5112480;28;20043;-73
2022/09/24 02:09:42;;;;;;;7.95;3.20;;;;;;;11.58;83.79;101312.41;5094199;28;20065;-73
2022/09/24 02:12:18;;;;;;;5.80;3.08;;;;;;;11.62;83.71;101322.00;5112907;28;20035;-73
2022/09/24 02:14:51;;;;;;;8.32;3.00;;;;;;;11.68;83.07;101315.25;5113090;28;20077;-70
2022/09/24 02:17:17;;;;;;;4.32;3.10;;;;;;;11.69;82.47;101312.44;5094220;28;20055;-71
2022/09/24 02:19:45;;;;;;;7.18;2.88;;;;;;;11.76;82.33;101320.94;5094377;28;20024;-72
2022/09/24 02:22:13;;;;;;;6.10;2.65;;;;;;;11.74;82.70;101315.66;5112594;28;20026;-71
2022/09/24 02:24:49;;;;;;;7.18;3.33;;;;;;;11.75;82.41;101317.34;5112762;28;20356;-71
2022/09/24 02:27:16;;;;;;;9.52;3.33;;;;;;;11.77;82.29;101319.09;5094254;28;20040;-71
2022/09/24 02:29:43;;;;;;;5.38;3.10;;;;;;;11.75;82.27;101317.34;5112515;28;20108;-70
2022/09/24 02:32:12;;;;;;;5.95;2.75;;;;;;;11.75;82.38;101311.97;5094066;28;20123;-72
2022/09/24 02:34:46;;;;;;;5.13;2.80;;;;;;;11.72;82.41;101306.81;5094264;28;20399;-72
2022/09/24 02:37:13;;;;;;;7.85;2.95;;;;;;;11.75;82.00;101309.28;5093677;28;20054;-71
2022/09/24 02:39:39;;;;;;;6.28;3.10;;;;;;;11.73;82.59;101308.53;5112289;28;20523;-72
2022/09/24 02:42:06;;;;;;;6.35;3.30;;;;;;;11.72;82.79;101301.44;5094154;28;20069;-72
2022/09/24 02:44:32;;;;;;;3.95;3.22;;;;;;;11.70;82.88;101298.00;5112359;28;20379;-71
2022/09/24 02:46:58;;;;;;;5.55;2.88;;;;;;;11.69;82.26;101304.38;5093754;28;20024;-72
2022/09/24 02:49:24;;;;;;;6.20;2.97;;;;;;;11.63;82.72;101304.84;5114573;28;20036;-72
2022/09/24 02:51:49;;;;;;;5.30;3.42;;;;;;;11.63;82.66;101299.47;5115875;28;20028;-72
2022/09/24 02:54:15;;;;;;;6.43;2.83;;;;;;;11.68;81.94;101294.56;5116475;28;20043;-71
2022/09/24 02:56:41;;;;;;;10.68;2.65;;;;;;;11.77;81.36;101297.56;5116247;28;20467;-72
2022/09/24 02:59:07;;;;;;;7.70;3.10;;;;;;;11.66;82.19;101295.69;5115838;28;20027;-73
2022/09/24 03:01:33;;;;;;;6.13;2.88;;;;;;;11.64;82.70;101298.47;5097643;28;20099;-71
2022/09/24 03:03:59;;;;;;;6.80;2.70;;;;;;;11.51;83.20;101305.78;5115865;28;20141;-72
2022/09/24 03:06:25;;;;;;;3.83;2.42;;;;;;;11.44;83.85;101301.84;5115760;28;20027;-71
2022/09/24 03:08:54;;;;;;;7.32;3.15;;;;;;;11.30;84.88;101302.00;5097495;28;20357;-71
2022/09/24 03:11:21;;;;;;;8.32;3.22;;;;;;;11.34;85.04;101295.41;5115626;28;20036;-72
2022/09/24 03:13:47;;;;;;;6.68;2.70;;;;;;;11.32;85.56;101297.34;5115750;28;20111;-71
2022/09/24 03:16:14;;;;;;;6.07;3.30;;;;;;;11.26;85.89;101301.38;5115795;28;20028;-71
2022/09/24 03:18:39;;;;;;;7.13;3.88;;;;;;;11.29;86.52;101294.91;5115618;28;20019;-72
2022/09/24 03:21:09;;;;;;;6.35;3.13;;;;;;;11.31;85.93;101295.63;5115131;28;20034;-71
2022/09/24 03:23:35;;;;;;;6.70;3.53;;;;;;;11.33;86.40;101288.31;5097078;28;20476;-71
2022/09/24 03:26:01;;;;;;;5.00;2.97;;;;;;;11.51;83.78;101286.91;5096930;28;20357;-71
2022/09/24 03:28:27;;;;;;;4.97;2.10;;;;;;;11.68;82.03;101289.19;5115274;28;20110;-72
2022/09/24 03:30:59;;;;;;;9.73;2.53;;;;;;;11.80;80.75;101289.28;5096760;28;20039;-73
2022/09/24 03:33:35;;;;;;;7.03;3.25;;;;;;;11.59;82.46;101286.31;5096792;28;20024;-71
2022/09/24 03:36:07;;;;;;;5.38;3.38;;;;;;;11.45;84.53;101282.00;5115171;28;20043;-71
2022/09/24 03:38:34;;;;;;;6.20;3.13;;;;;;;11.58;83.95;101281.91;5096923;28;20031;-71
2022/09/24 03:41:01;;;;;;;13.10;2.60;;;;;;;11.68;83.34;101289.19;5114877;28;20038;-72
2022/09/24 03:43:27;;;;;;;6.13;2.60;;;;;;;11.70;82.79;101287.22;5114906;28;20476;-73
2022/09/24 03:45:54;;;;;;;4.70;2.90;;;;;;;11.76;81.82;101283.22;5114933;28;20030;-72
2022/09/24 03:48:20;;;;;;;4.95;2.53;;;;;;;11.75;81.95;101284.19;5114831;28;20031;-71
2022/09/24 03:50:46;;;;;;;7.32;2.30;;;;;;;11.83;80.87;101289.03;5115059;28;20043;-72
2022/09/24 03:53:13;;;;;;;8.68;2.55;;;;;;;11.89;80.70;101296.63;5096590;28;20658;-71
2022/09/24 03:55:43;;;;;;;4.80;2.20;;;;;;;11.87;80.69;101294.06;5096487;28;20032;-71
2022/09/24 03:58:10;;;;;;;3.55;2.10;;;;;;;11.78;82.13;101291.19;5114906;28;20048;-71
2022/09/24 04:00:36;;;;;;;4.68;2.17;;;;;;;11.68;83.32;101289.19;5114442;28;20084;-71
2022/09/24 04:03:01;;;;;;;3.20;2.15;;;;;;;11.72;82.59;101295.19;5114577;28;20461;-71
2022/09/24 04:05:29;;;;;;;3.72;2.45;;;;;;;11.79;82.23;101295.63;5096406;28;20387;-71
2022/09/24 04:07:55;;;;;;;4.15;2.50;;;;;;;11.83;81.79;101291.72;5114457;28;20076;-72
2022/09/24 04:10:23;;;;;;;5.35;2.42;;;;;;;11.75;82.25;101295.81;5096078;28;20479;-72
2022/09/24 04:12:50;;;;;;;2.33;2.08;;;;;;;11.78;81.89;101286.66;5114415;28;20036;-72
2022/09/24 04:15:17;;;;;;;6.68;2.67;;;;;;;11.85;81.44;101281.69;5095792;28;20184;-70
2022/09/24 04:17:49;;;;;;;5.13;2.58;;;;;;;11.86;81.33;101284.25;5096215;28;20333;-71
2022/09/24 04:20:15;;;;;;;4.72;2.15;;;;;;;11.79;81.99;101293.81;5096275;28;20032;-71
2022/09/24 04:22:41;;;;;;;5.68;2.05;;;;;;;11.74;82.67;101294.09;5114402;28;20476;-72
2022/09/24 04:25:07;;;;;;;4.53;2.55;;;;;;;11.60;83.63;101302.41;5095774;28;20395;-73
2022/09/24 04:27:34;;;;;;;8.95;3.17;;;;;;;11.55;84.62;101295.63;5114116;28;20031;-72
2022/09/24 04:30:00;;;;;;;4.55;2.30;;;;;;;11.57;84.49;101299.91;5114026;28;20126;-72
2022/09/24 04:32:26;;;;;;;3.45;2.65;;;;;;;11.57;84.19;101289.13;5095845;28;20024;-72
2022/09/24 04:34:51;;;;;;;5.07;2.53;;;;;;;11.63;84.07;101296.78;5114052;28;20388;-72
2022/09/24 04:37:17;;;;;;;6.35;2.92;;;;;;;11.68;83.80;101297.25;5095554;28;20451;-70
2022/09/24 04:39:42;;;;;;;7.20;2.22;;;;;;;11.77;83.58;101297.56;5113832;28;20567;-72
2022/09/24 04:42:08;;;;;;;7.65;2.72;;;;;;;11.77;83.41;101302.94;5095656;28;20035;-72
2022/09/24 04:44:33;;;;;;;6.47;2.97;;;;;;;11.84;83.28;101304.22;5113615;28;20024;-71
2022/09/24 04:47:01;;;;;;;4.30;2.35;;;;;;;11.79;83.34;101303.72;5113781;28;20546;-72
2022/09/24 04:49:26;;;;;;;3.25;1.90;;;;;;;11.76;83.40;101307.47;5114073;28;20073;-70
2022/09/24 04:51:52;;;;;;;6.97;2.90;;;;;;;11.75;83.60;101301.19;5095602;28;20027;-70
2022/09/24 04:54:17;;;;;;;7.85;3.05;;;;;;;11.71;84.52;101304.25;5095486;28;20042;-71
2022/09/24 04:56:43;;;;;;;3.40;2.10;;;;;;;11.67;84.46;101308.16;5113650;28;20604;-71
2022/09/24 04:59:09;;;;;;;4.70;2.58;;;;;;;11.68;84.97;101299.97;5094949;28;20560;-71
2022/09/24 05:01:34;;;;;;;5.72;2.63;;;;;;;11.62;85.76;101295.06;5095434;28;20085;-71
2022/09/24 05:04:00;;;;;;;7.65;2.72;;;;;;;11.62;85.66;101297.75;5114843;28;20028;-71
2022/09/24 05:06:26;;;;;;;5.05;3.00;;;;;;;11.65;85.61;101300.19;5117713;28;20032;-72
2022/09/24 05:08:52;;;;;;;7.07;2.35;;;;;;;11.68;85.66;101299.97;5098164;28;20396;-72
2022/09/24 05:11:18;;;;;;;6.40;2.42;;;;;;;11.73;85.08;101303.16;5112128;28;20441;-71
2022/09/24 05:13:44;;;;;;;5.15;3.33;;;;;;;11.68;85.72;101299.97;5113102;28;20031;-71
2022/09/24 05:16:09;;;;;;;6.20;2.85;;;;;;;11.68;85.33;101299.97;5095212;28;20087;-72
2022/09/24 05:18:35;;;;;;;4.03;2.78;;;;;;;11.76;85.51;101302.09;5094999;28;20348;-70
2022/09/24 05:21:01;;;;;;;6.35;3.10;;;;;;;11.84;85.51;101298.81;5094624;28;20031;-71
2022/09/24 05:23:28;;;;;;;4.25;2.40;;;;;;;11.92;84.53;101307.16;5094745;28;20035;-72
2022/09/24 05:28:39;;;;;;;7.05;2.50;;;;;;;12.06;83.53;101304.25;5113199;28;20498;-70
2022/09/24 05:31:05;;;;;;;3.75;2.15;;;;;;;12.04;83.21;101300.84;5112755;28;20019;-72
2022/09/24 05:33:30;;;;;;;5.32;2.25;;;;;;;12.07;83.07;101311.38;5094337;28;20400;-71
2022/09/24 05:35:59;;;;;;;5.82;2.35;;;;;;;12.10;83.30;101308.47;5094838;28;20031;-71
2022/09/24 05:38:25;;;;;;;6.53;2.50;;;;;;;12.10;83.85;101308.47;5094870;28;20028;-72
2022/09/24 05:40:51;;;;;;;5.03;2.85;;;;;;;12.14;84.90;101312.63;5112933;28;20042;-71
2022/09/24 05:43:20;;;;;;;5.38;2.78;;;;;;;12.16;84.96;101310.66;5113076;28;20404;-71
2022/09/24 05:45:46;;;;;;;4.20;2.10;;;;;;;12.23;84.38;101317.28;5094867;28;20055;-71
2022/09/24 05:48:11;;;;;;;3.45;2.25;;;;;;;12.20;84.60;101306.75;5094704;28;20055;-72
2022/09/24 05:50:37;;;;;;;4.78;2.35;;;;;;;12.16;85.17;101315.19;5080219;28;20501;-72
2022/09/24 05:53:04;;;;;;;3.70;2.67;;;;;;;12.26;85.25;101316.19;5072031;28;20469;-73
2022/09/24 05:55:31;;;;;;;3.35;2.17;;;;;;;12.25;85.04;101309.94;5072511;28;20048;-72
2022/09/24 05:58:09;;;;;;;4.88;2.47;;;;;;;12.43;84.32;101317.56;5071129;28;20067;-73
2022/09/24 06:00:35;;;;;;;6.65;2.60;;;;;;;12.48;84.16;101310.84;5070861;28;20366;-72
2022/09/24 06:03:06;;;;;;;5.03;2.67;;;;;;;12.45;84.17;101321.88;5072147;28;20035;-72
2022/09/24 06:05:34;;;;;;;7.68;2.55;;;;;;;12.34;84.79;101313.75;5071937;28;20384;-72
2022/09/24 06:08:02;;;;;;;4.60;2.65;;;;;;;12.40;84.32;101318.66;5070537;28;20553;-72
2022/09/24 06:10:27;;;;;;;8.20;3.15;;;;;;;12.51;84.16;101315.13;5070811;28;20039;-72
2022/09/24 06:12:53;;;;;;;4.22;1.83;;;;;;;12.49;83.98;101317.09;5070912;28;20037;-72
2022/09/24 06:15:20;;;;;;;7.18;2.45;;;;;;;12.45;85.11;101318.31;5070253;28;20618;-72
2022/09/24 06:17:46;;;;;;;6.88;2.30;;;;;;;12.51;85.04;101310.59;5071984;28;20032;-72
2022/09/24 06:20:12;;;;;;;5.85;2.78;;;;;;;12.47;85.90;101313.66;5070484;28;20401;-72
2022/09/24 06:22:38;;;;;;;6.55;2.33;;;;;;;12.55;85.31;101321.97;5073318;28;20035;-73
2022/09/24 06:25:06;;;;;;;7.15;2.65;;;;;;;12.56;85.20;101318.28;5075780;28;20045;-70
2022/09/24 06:27:31;;;;;;;5.30;2.65;;;;;;;12.68;85.02;101322.72;5074466;28;20091;-71
2022/09/24 06:29:57;;;;;;;5.80;3.00;;;;;;;12.74;84.85;101316.81;5075760;28;20485;-72
2022/09/24 06:32:23;;;;;;;5.40;2.60;;;;;;;12.75;85.27;101321.25;5075922;28;20032;-73
2022/09/24 06:34:49;;;;;;;5.70;2.53;;;;;;;12.63;85.56;101319.53;5074160;28;20051;-71
2022/09/24 06:37:15;;;;;;;4.70;2.28;;;;;;;12.73;85.21;101320.50;5075590;28;20517;-72
2022/09/24 06:39:41;;;;;;;5.57;2.42;;;;;;;12.75;85.19;101323.94;5075697;28;20032;-72
2022/09/24 06:42:07;;;;;;;3.50;2.40;;;;;;;12.83;84.73;101326.91;5076371;28;20428;-71
2022/09/24 06:44:34;;;;;;;4.13;2.60;;;;;;;12.87;84.28;101328.34;5076658;28;20032;-73
2022/09/24 06:47:01;;;;;;;3.85;2.40;;;;;;;12.95;84.22;101325.06;5075213;28;20055;-72
2022/09/24 06:49:28;;;;;;;5.63;2.78;;;;;;;12.94;83.85;101335.00;5075718;28;20133;-73
2022/09/24 06:51:54;;;;;;;5.70;2.80;;;;;;;12.91;83.84;101327.13;5115637;28;20102;-71
2022/09/24 06:54:21;;;;;;;4.18;2.58;;;;;;;12.94;83.88;101324.19;5115995;28;20027;-72
2022/09/24 06:56:47;;;;;;;7.85;2.63;;;;;;;12.94;83.64;101324.19;5097511;28;20063;-72
2022/09/24 06:59:13;;;;;;;6.72;3.10;;;;;;;12.99;83.61;101314.84;5097140;28;20047;-72
2022/09/24 07:01:39;;;;;;;6.05;2.90;;;;;;;12.99;83.51;101325.66;5097275;28;20468;-72
2022/09/24 07:04:04;;;;;;;5.88;3.25;;;;;;;13.04;83.79;101326.13;5115580;28;20035;-72
2022/09/24 07:07:28;;;;;;;3.17;2.85;;;;;;;13.12;83.25;101326.38;5097519;28;20123;-72
2022/09/24 07:09:18;;;;;;;5.75;2.72;;;;;;;13.12;83.15;101326.38;5115167;28;20042;-72
2022/09/24 07:11:46;;;;;;;3.55;2.90;;;;;;;13.14;82.91;101319.00;5097193;28;20111;-72
2022/09/24 07:14:12;;;;;;;3.30;2.58;;;;;;;13.14;83.02;101324.41;5115743;28;20055;-73
2022/09/24 07:16:38;;;;;;;4.05;2.38;;;;;;;13.17;82.86;101325.00;5115435;28;20024;-73
2022/09/24 07:19:04;;;;;;;6.63;3.05;;;;;;;13.23;83.13;101329.06;5097125;28;20024;-71
2022/09/24 07:21:29;;;;;;;4.72;2.40;;;;;;;13.28;83.27;101326.88;5096819;28;20063;-72
2022/09/24 07:23:55;;;;;;;4.13;2.65;;;;;;;13.28;82.99;101329.56;5115260;28;20498;-71
2022/09/24 07:26:21;;;;;;;3.92;2.90;;;;;;;13.35;82.94;101328.06;5097120;28;20391;-72
2022/09/24 07:28:46;;;;;;;7.63;2.75;;;;;;;13.43;82.72;101327.41;5115396;28;20023;-72
2022/09/24 07:31:12;;;;;;;3.63;2.40;;;;;;;13.53;82.53;101325.66;5096507;28;20035;-72
2022/09/24 07:33:37;;;;;;;6.72;2.70;;;;;;;13.62;81.84;101324.06;5114669;28;20478;-72
2022/09/24 07:36:07;;;;;;;5.78;2.50;;;;;;;13.72;81.08;101331.25;5096385;28;20027;-71
2022/09/24 07:38:35;;;;;;;4.43;2.58;;;;;;;13.81;81.01;101337.72;5097024;28;20027;-71
2022/09/24 07:41:03;;;;;;;3.92;2.35;;;;;;;13.93;80.06;101339.38;5114725;28;20031;-72
2022/09/24 07:43:30;;;;;;;3.47;2.40;;;;;;;13.98;80.00;101339.88;5114613;28;20040;-73
2022/09/24 07:45:57;;;;;;;4.30;2.65;;;;;;;14.04;79.62;101338.47;5096144;28;20047;-71
2022/09/24 07:48:23;;;;;;;8.13;2.75;;;;;;;14.13;79.41;101338.56;5114855;28;20066;-71
2022/09/24 07:50:50;;;;;;;5.35;2.55;;;;;;;14.25;79.61;101333.06;5114547;28;20101;-72
2022/09/24 07:53:16;;;;;;;5.25;3.05;;;;;;;14.37;79.17;101337.41;5095897;28;20032;-74
2022/09/24 07:55:42;;;;;;;10.73;3.60;;;;;;;14.39;78.81;101338.13;5096216;28;20031;-72
2022/09/24 07:58:14;;;;;;;4.95;2.80;;;;;;;14.27;78.96;101341.88;5114328;28;20375;-72
2022/09/24 08:00:41;;;;;;;5.30;2.47;;;;;;;14.51;78.97;101344.38;5096129;28;20034;-73
2022/09/24 08:03:07;;;;;;;5.72;2.58;;;;;;;14.65;78.22;101347.56;5114275;28;20034;-72
2022/09/24 08:05:33;;;;;;;4.05;2.20;;;;;;;14.76;78.10;101341.19;5095518;28;20031;-71
2022/09/24 08:07:59;;;;;;;4.53;2.60;;;;;;;14.86;77.52;101338.53;5114297;28;20030;-72
2022/09/24 08:10:27;;;;;;;3.88;2.47;;;;;;;14.96;77.40;101339.44;5114000;28;20071;-71
2022/09/24 08:12:53;;;;;;;8.48;2.42;;;;;;;15.12;76.73;101334.38;5113676;28;20111;-71
2022/09/24 08:15:19;;;;;;;3.08;1.80;;;;;;;15.24;76.91;101333.22;5114184;28;20023;-72
2022/09/24 08:17:44;;;;;;;6.63;2.58;;;;;;;15.46;76.00;101336.72;5114773;28;20135;-71
2022/09/24 08:20:11;;;;;;;3.80;1.88;;;;;;;15.41;74.92;101338.97;5095826;28;20432;-71
2022/09/24 08:22:37;;;;;;;3.50;1.40;;;;;;;15.58;74.01;101341.84;5114186;28;20028;-71
2022/09/24 08:25:04;;;;;;;3.65;2.20;;;;;;;15.66;73.36;101343.03;5113318;28;20047;-70
2022/09/24 08:27:31;;;;;;;7.43;2.03;;;;;;;15.69;73.17;101338.19;5095168;28;20041;-70
2022/09/24 08:29:59;;;;;;;1.98;1.60;;;;;;;15.70;73.03;101345.31;5113796;28;20164;-70
2022/09/24 08:32:25;;;;;;;2.40;1.38;;;;;;;15.82;71.24;101346.06;5113881;28;20107;-73
2022/09/24 08:34:51;;;;;;;4.32;1.70;;;;;;;15.86;71.13;101345.63;5113742;28;20476;-69
2022/09/24 08:37:17;;;;;;;4.15;1.33;;;;;;;16.10;69.22;101347.88;5095205;28;20035;-70
2022/09/24 08:39:42;;;;;;;3.83;1.60;;;;;;;16.10;69.55;101350.59;5113527;28;20031;-69
2022/09/24 08:42:19;;;;;;;3.80;1.50;;;;;;;16.17;68.99;101346.31;5113514;28;20038;-71
2022/09/24 08:47:44;;;;;;;5.65;2.10;;;;;;;16.92;66.85;101349.97;5113686;28;20124;-70
2022/09/24 08:50:27;;;;;;;3.28;1.40;;;;;;;16.77;66.99;101354.19;5113396;28;20055;-71
2022/09/24 08:53:15;;;;;;;3.40;1.40;;;;;;;16.59;67.15;101355.91;5095135;28;20047;-69
2022/09/24 08:55:51;;;;;;;4.30;1.80;;;;;;;16.91;66.49;101345.53;5094918;28;20020;-69
2022/09/24 08:58:44;;;;;;;4.25;1.75;;;;;;;18.01;63.31;101337.25;5094555;28;20110;-70
2022/09/24 09:01:09;;;;;;;1.63;1.27;;;;;;;18.16;61.13;101334.84;5095049;28;20278;-69
2022/09/24 09:03:38;;;;;;;2.92;1.20;;;;;;;18.36;60.88;101335.50;5094752;28;20527;-69
2022/09/24 09:06:09;;;;;;;3.17;1.10;;;;;;;18.80;58.37;101339.00;5094999;28;20023;-69
2022/09/24 09:09:08;;;;;;;4.43;1.70;;;;;;;18.47;58.35;101348.81;5094847;28;20038;-65
2022/09/24 09:11:36;;;;;;;4.00;1.23;;;;;;;18.47;58.05;101337.91;5094626;28;20497;-68
2022/09/24 09:14:16;;;;;;;6.32;1.10;;;;;;;18.85;57.64;101342.97;5094385;28;20070;-65
2022/09/24 09:16:44;;;;;;;2.58;1.17;;;;;;;19.20;55.75;101341.06;5113204;28;20027;-66
2022/09/24 09:19:14;;;;;;;4.78;1.48;;;;;;;19.03;56.47;101345.59;5112654;28;20555;-65
2022/09/24 09:21:43;;;;;;;1.38;0.98;;;;;;;19.46;54.92;101340.97;5094225;28;20039;-65
2022/09/24 09:24:23;;;;;;;4.60;1.38;;;;;;;19.22;53.14;101334.44;5113245;28;20028;-66
2022/09/24 09:26:53;;;;;;;3.03;0.95;;;;;;;18.08;57.64;101343.78;5112742;28;20032;-65
2022/09/24 09:29:23;;;;;;;2.55;1.15;;;;;;;18.81;56.17;101332.53;5112350;28;20100;-65
2022/09/24 09:32:19;;;;;;;2.80;1.27;;;;;;;18.98;54.98;101344.38;5112605;28;20112;-64
2022/09/24 09:34:54;;;;;;;6.93;1.38;;;;;;;19.16;54.33;101345.16;5094054;28;20034;-65
2022/09/24 09:37:39;;;;;;;2.30;1.30;;;;;;;19.32;53.97;101339.75;5093950;28;20036;-65
2022/09/24 09:40:31;;;;;;;6.20;1.33;;;;;;;19.26;54.80;101337.69;5112292;28;20036;-63
2022/09/24 09:43:03;;;;;;;5.40;1.25;;;;;;;18.57;55.56;101338.69;5093596;28;20143;-64
2022/09/24 09:45:41;;;;;;;1.75;0.95;;;;;;;18.84;55.76;101341.25;5112489;28;20030;-65
2022/09/24 09:48:11;;;;;;;3.03;1.30;;;;;;;18.51;56.12;101344.78;5112337;28;20532;-66
2022/09/24 09:50:40;;;;;;;5.25;1.77;;;;;;;18.34;56.86;101347.41;5111862;28;20044;-66
2022/09/24 09:53:21;;;;;;;6.90;1.50;;;;;;;18.01;56.33;101342.69;5111129;28;20031;-66
2022/09/24 09:55:54;;;;;;;3.90;1.50;;;;;;;18.03;56.56;101348.84;5112514;28;20028;-66
2022/09/24 09:58:36;;;;;;;4.35;1.48;;;;;;;17.82;55.83;101335.56;5111815;28;20081;-66
2022/09/24 10:01:11;;;;;;;2.58;1.27;;;;;;;17.56;56.38;101349.03;5093081;28;20123;-65
2022/09/24 10:03:43;;;;;;;2.90;1.27;;;;;;;17.87;56.66;101344.09;5094121;28;20020;-66
2022/09/24 10:06:13;;;;;;;8.88;2.70;;;;;;;17.72;56.60;101351.94;5094088;28;20161;-65
2022/09/24 10:08:39;;;;;;;3.50;1.33;;;;;;;18.26;56.55;101351.91;5112278;28;20063;-66
2022/09/24 10:11:06;;;;;;;2.70;1.25;;;;;;;17.95;52.23;101340.59;5111670;28;20027;-66
2022/09/24 10:13:33;;;;;;;6.15;1.30;;;;;;;18.50;51.82;101345.81;5111701;28;20483;-65
2022/09/24 10:16:04;;;;;;;3.33;1.30;;;;;;;18.39;51.99;101349.63;5093717;28;20386;-65
2022/09/24 10:18:49;;;;;;;3.25;1.65;;;;;;;17.89;51.63;101344.81;5093527;28;20028;-65
2022/09/24 10:21:30;;;;;;;7.47;2.33;;;;;;;18.16;51.57;101345.72;5111479;28;20027;-65
2022/09/24 10:24:00;;;;;;;3.22;1.58;;;;;;;17.99;52.15;101344.72;5111494;28;20028;-65
2022/09/24 10:26:38;;;;;;;2.63;1.63;;;;;;;17.57;53.03;101348.03;5093898;28;20027;-66
2022/09/24 10:31:50;;;;;;;5.25;1.50;;;;;;;18.27;52.73;101342.72;5111518;28;20070;-66
2022/09/24 10:34:25;;;;;;;3.60;1.38;;;;;;;18.63;50.89;101329.88;5111274;28;20069;-65
2022/09/24 10:37:01;;;;;;;3.53;1.10;;;;;;;17.90;52.71;101340.22;5111880;28;20036;-65
2022/09/24 10:39:28;;;;;;;4.07;1.38;;;;;;;17.95;53.92;101333.28;5093236;28;20027;-65
2022/09/24 10:41:58;;;;;;;4.82;1.80;;;;;;;17.69;54.18;101344.13;5111805;28;20031;-64
2022/09/24 10:44:33;;;;;;;4.10;1.75;;;;;;;17.59;54.69;101332.41;5111649;28;20032;-65
2022/09/24 10:47:09;;;;;;;;;;;;;;;17.94;54.20;101336.16;5111426;28;20039;-65
2022/09/24 10:49:56;;;;;;;3.78;1.10;;;;;;;17.77;54.88;101331.59;5110987;28;20295;-65
2022/09/24 10:52:49;;;;;;;6.25;1.80;;;;;;;17.92;55.79;101338.19;5111161;28;20028;-65
2022/09/24 10:55:25;;;;;;;4.07;1.80;;;;;;;17.71;56.20;101325.78;5111020;28;20523;-64
2022/09/24 10:58:29;;;;;;;5.28;1.02;;;;;;;17.54;56.28;101340.19;5111232;28;20543;-66
2022/09/24 11:00:58;;;;;;;2.20;1.38;;;;;;;17.40;56.95;101333.41;5093297;28;20118;-66
2022/09/24 11:03:52;;;;;;;2.67;1.20;;;;;;;17.51;56.79;101340.50;5111802;28;20118;-64
2022/09/24 11:06:41;;;;;;;3.85;1.52;;;;;;;17.33;57.62;101335.03;5092741;28;20066;-65
2022/09/24 11:09:30;;;;;;;5.97;1.60;;;;;;;17.16;58.00;101338.56;5093229;28;20027;-65
2022/09/24 11:12:21;;;;;;;6.85;1.90;;;;;;;17.31;56.49;101328.91;5114604;28;20031;-66
2022/09/24 11:15:04;;;;;;;2.85;1.30;;;;;;;17.37;55.05;101332.84;5096799;28;20476;-64
2022/09/24 11:17:51;;;;;;;2.80;1.08;;;;;;;17.39;53.34;101330.84;5115424;28;20038;-65
2022/09/24 11:20:38;;;;;;;2.92;1.30;;;;;;;17.33;52.72;101331.47;5114610;28;20028;-64
2022/09/24 11:23:22;;;;;;;3.40;1.20;;;;;;;17.42;51.75;101330.53;5114392;28;20028;-65
2022/09/24 11:26:06;;;;;;;2.73;1.20;;;;;;;17.38;53.14;101329.97;5115082;28;20032;-66
2022/09/24 11:29:05;;;;;;;4.53;1.60;;;;;;;17.18;53.52;101324.84;5096347;28;20034;-66
2022/09/24 11:31:41;;;;;;;4.10;1.00;;;;;;;17.12;53.80;101324.41;5096527;28;20043;-65
2022/09/24 11:34:15;;;;;;;4.00;1.10;;;;;;;17.24;54.23;101326.94;5114917;28;20035;-65
2022/09/24 11:36:59;;;;;;;;;;;;;;;17.15;54.26;101328.72;5114913;28;20036;-65
2022/09/24 11:39:25;;;;;;;5.97;2.22;;;;;;;17.27;54.47;101327.47;5096509;28;19955;-65
2022/09/24 11:42:23;;;;;;;6.97;2.20;;;;;;;16.94;55.22;101331.66;5114278;28;20066;-65
2022/09/24 11:44:56;;;;;;;2.33;1.25;;;;;;;16.94;55.00;101326.22;5088825;28;20036;-65
2022/09/24 11:47:29;;;;;;;3.65;1.58;;;;;;;17.01;55.50;101337.38;5096052;28;20464;-65
2022/09/24 11:50:45;;;;;;;5.82;1.80;;;;;;;16.69;56.52;101332.34;5095712;28;20039;-65